Time;durP1;ratioP1;P1;durP2;ratioP2;P2;SDS_P1;SDS_P2;PMS_P1;PMS_P2;Temp;Humidity;BMP_temperature;BMP_pressure;BME280_temperature;BME280_humidity;BME280_pressure;Samples;Min_cycle;Max_cycle;Signal;HPM_P1;HPM_P2
2023/06/02 00:01:32;;;;;;;12.60;12.00;;;11.90;99.90;;;;;;5036853;28;20566;-68
2023/06/02 00:04:01;;;;;;;12.37;11.87;;;11.90;99.90;;;;;;5045015;28;20468;-68
2023/06/02 00:06:30;;;;;;;13.63;12.93;;;12.00;99.90;;;;;;5039253;28;20483;-69
2023/06/02 00:08:58;;;;;;;12.00;11.50;;;12.10;99.90;;;;;;5043505;28;20559;-68
2023/06/02 00:11:34;;;;;;;11.57;11.17;;;12.10;99.90;;;;;;5040424;28;20456;-68
2023/06/02 00:14:02;;;;;;;11.33;10.93;;;12.20;99.90;;;;;;5040626;28;20484;-68
2023/06/02 00:16:29;;;;;;;11.30;10.90;;;12.20;99.90;;;;;;5044853;28;20464;-69
2023/06/02 00:18:56;;;;;;;13.77;12.97;;;12.10;99.90;;;;;;5029578;28;20519;-68
2023/06/02 00:21:23;;;;;;;13.40;12.70;;;12.20;99.90;;;;;;5042393;28;20466;-68
2023/06/02 00:23:50;;;;;;;12.23;11.73;;;12.20;99.90;;;;;;5043499;28;20975;-68
2023/06/02 00:26:17;;;;;;;13.70;13.03;;;12.20;99.90;;;;;;5040251;28;20467;-68
2023/06/02 00:28:46;;;;;;;12.13;11.53;;;12.30;99.90;;;;;;5038972;28;20452;-68
2023/06/02 00:31:12;;;;;;;20.33;11.67;;;12.20;99.90;;;;;;5048622;28;20570;-69
2023/06/02 00:33:41;;;;;;;12.00;11.50;;;12.30;99.90;;;;;;5048378;28;20495;-68
2023/06/02 00:36:08;;;;;;;11.10;10.70;;;12.40;99.90;;;;;;5031764;28;20989;-68
2023/06/02 00:38:35;;;;;;;13.77;12.60;;;12.40;99.90;;;;;;5034207;28;20470;-68
2023/06/02 00:41:02;;;;;;;13.00;12.30;;;12.40;99.90;;;;;;5040262;28;20469;-68
2023/06/02 00:43:29;;;;;;;11.70;11.30;;;12.40;99.90;;;;;;5039927;28;20465;-68
2023/06/02 00:45:58;;;;;;;12.03;11.47;;;12.30;99.90;;;;;;5039425;28;20464;-68
2023/06/02 00:48:25;;;;;;;12.40;11.90;;;12.30;99.90;;;;;;5043612;28;20459;-68
2023/06/02 00:50:52;;;;;;;13.20;12.60;;;12.40;99.90;;;;;;5041631;28;20488;-68
2023/06/02 00:53:19;;;;;;;12.03;11.53;;;12.30;99.90;;;;;;5037378;28;20484;-68
2023/06/02 00:55:47;;;;;;;11.17;10.77;;;12.30;99.90;;;;;;5043549;28;20460;-68
2023/06/02 00:58:16;;;;;;;11.50;11.10;;;12.40;99.90;;;;;;5043878;28;20962;-68
2023/06/02 01:00:43;;;;;;;12.53;11.93;;;12.40;99.90;;;;;;5035870;28;20456;-68
2023/06/02 01:03:14;;;;;;;11.60;11.00;;;12.40;99.90;;;;;;5046460;28;20464;-68
2023/06/02 01:05:43;;;;;;;10.80;10.40;;;12.40;99.90;;;;;;5029473;28;20465;-68
2023/06/02 01:08:12;;;;;;;11.17;10.77;;;12.50;99.90;;;;;;5042540;28;20569;-68
2023/06/02 01:10:40;;;;;;;12.20;11.70;;;12.40;99.90;;;;;;5043619;28;20471;-68
2023/06/02 01:13:06;;;;;;;12.23;11.73;;;12.40;99.90;;;;;;5044178;28;20484;-68
2023/06/02 01:15:34;;;;;;;12.23;11.67;;;12.20;99.90;;;;;;5032945;28;20830;-69
2023/06/02 01:18:01;;;;;;;12.87;12.07;;;12.30;99.90;;;;;;5039412;28;20942;-68
2023/06/02 01:20:31;;;;;;;11.80;11.40;;;12.30;99.90;;;;;;5036797;28;20512;-67
2023/06/02 01:23:05;;;;;;;11.73;11.13;;;12.30;99.90;;;;;;5044722;28;20470;-69
2023/06/02 01:25:36;;;;;;;11.77;11.37;;;12.40;99.90;;;;;;5036559;28;20571;-69
2023/06/02 01:28:04;;;;;;;11.77;11.27;;;12.40;99.90;;;;;;5040252;28;20552;-68
2023/06/02 01:30:32;;;;;;;12.23;11.73;;;12.40;99.90;;;;;;5033674;28;20463;-68
2023/06/02 01:33:06;;;;;;;13.20;12.60;;;12.40;99.90;;;;;;5045038;28;20910;-68
2023/06/02 01:35:44;;;;;;;12.60;12.10;;;12.40;99.90;;;;;;5035544;28;20464;-68
2023/06/02 01:38:13;;;;;;;11.60;11.20;;;12.40;99.90;;;;;;5040454;28;20455;-69
2023/06/02 01:40:43;;;;;;;12.20;11.70;;;12.40;99.90;;;;;;5043214;28;20473;-69
2023/06/02 01:43:11;;;;;;;12.73;12.23;;;12.30;99.90;;;;;;5036355;28;20468;-68
2023/06/02 01:45:38;;;;;;;11.70;11.30;;;12.30;99.90;;;;;;5037591;28;20479;-68
2023/06/02 01:48:07;;;;;;;13.87;13.00;;;12.30;99.90;;;;;;5032680;28;20526;-68
2023/06/02 01:50:37;;;;;;;13.20;11.50;;;12.20;99.90;;;;;;5043041;28;20464;-68
2023/06/02 01:53:04;;;;;;;14.30;13.27;;;12.20;99.90;;;;;;5039561;28;20477;-68
2023/06/02 01:55:31;;;;;;;11.70;11.20;;;12.20;99.90;;;;;;5035473;28;20543;-68
2023/06/02 01:57:59;;;;;;;13.57;12.53;;;12.10;99.90;;;;;;5043193;28;20464;-68
2023/06/02 02:00:27;;;;;;;15.13;13.67;;;12.00;99.90;;;;;;5041515;28;20463;-68
2023/06/02 02:02:55;;;;;;;12.03;11.53;;;11.90;99.90;;;;;;5044571;28;20772;-68
2023/06/02 02:05:22;;;;;;;12.63;12.03;;;11.90;99.90;;;;;;5042149;28;20482;-68
2023/06/02 02:07:50;;;;;;;10.90;10.50;;;11.90;99.90;;;;;;5036794;28;20468;-68
2023/06/02 02:10:18;;;;;;;12.47;11.87;;;11.80;99.90;;;;;;5034483;28;20463;-69
2023/06/02 02:12:45;;;;;;;13.90;12.67;;;11.80;99.90;;;;;;5038978;28;20464;-68
2023/06/02 02:15:13;;;;;;;10.90;10.50;;;11.70;99.90;;;;;;5048019;28;20491;-69
2023/06/02 02:17:44;;;;;;;11.83;11.40;;;11.70;99.90;;;;;;5030092;28;20952;-68
2023/06/02 02:20:16;;;;;;;13.20;12.40;;;11.80;99.90;;;;;;5037658;28;20487;-68
2023/06/02 02:22:43;;;;;;;14.63;13.67;;;11.70;99.90;;;;;;5037714;28;20464;-68
2023/06/02 02:25:10;;;;;;;14.00;13.13;;;11.70;99.90;;;;;;5042155;28;20474;-68
2023/06/02 02:27:37;;;;;;;15.00;13.90;;;11.60;99.90;;;;;;5040518;28;20468;-68
2023/06/02 02:30:05;;;;;;;13.17;12.03;;;11.50;99.90;;;;;;5037223;28;20455;-68
2023/06/02 02:32:36;;;;;;;12.17;11.67;;;11.50;99.90;;;;;;5034907;28;20476;-69
2023/06/02 02:35:04;;;;;;;12.63;11.77;;;11.40;99.90;;;;;;5039355;28;21024;-68
2023/06/02 02:37:31;;;;;;;14.00;13.00;;;11.40;99.90;;;;;;5039492;28;20511;-67
2023/06/02 02:39:58;;;;;;;12.20;11.53;;;11.30;99.90;;;;;;5040961;28;20552;-68
2023/06/02 02:42:26;;;;;;;13.10;12.20;;;11.30;99.90;;;;;;5043433;28;20471;-68
2023/06/02 02:44:53;;;;;;;15.00;14.10;;;11.30;99.90;;;;;;5039590;28;20456;-68
2023/06/02 02:47:20;;;;;;;13.97;13.27;;;11.30;99.90;;;;;;5037689;28;20517;-68
2023/06/02 02:49:49;;;;;;;12.60;12.00;;;11.30;99.90;;;;;;5028875;28;20475;-68
2023/06/02 02:52:17;;;;;;;12.17;11.63;;;11.30;99.90;;;;;;5045725;28;20867;-68
2023/06/02 02:54:44;;;;;;;13.03;12.33;;;11.30;99.90;;;;;;5045589;28;21329;-68
2023/06/02 02:57:11;;;;;;;13.53;12.53;;;11.30;99.90;;;;;;5043926;28;20468;-68
2023/06/02 02:59:37;;;;;;;11.50;11.10;;;11.30;99.90;;;;;;5043184;28;20472;-68
2023/06/02 03:02:06;;;;;;;11.03;10.63;;;11.30;99.90;;;;;;5042806;28;20501;-68
2023/06/02 03:04:34;;;;;;;11.03;10.63;;;11.40;99.90;;;;;;5045569;28;20472;-68
2023/06/02 03:07:03;;;;;;;13.53;12.73;;;11.40;99.90;;;;;;5043975;28;20751;-68
2023/06/02 03:09:29;;;;;;;12.80;12.03;;;11.50;99.90;;;;;;5039167;28;20966;-68
2023/06/02 03:11:57;;;;;;;11.50;11.00;;;11.60;99.90;;;;;;5039988;28;20966;-68
2023/06/02 03:14:26;;;;;;;12.10;11.53;;;11.50;99.90;;;;;;5045531;28;20492;-68
2023/06/02 03:16:54;;;;;;;11.97;11.47;;;11.50;99.90;;;;;;5043601;28;20555;-68
2023/06/02 03:19:23;;;;;;;12.10;11.60;;;11.50;99.90;;;;;;5046440;28;20487;-68
2023/06/02 03:21:52;;;;;;;12.57;12.00;;;11.50;99.90;;;;;;5044820;28;20472;-68
2023/06/02 03:24:21;;;;;;;13.10;12.47;;;11.40;99.90;;;;;;5041024;28;20809;-68
2023/06/02 03:26:51;;;;;;;13.43;12.63;;;11.40;99.90;;;;;;5039795;28;20551;-69
2023/06/02 03:29:18;;;;;;;12.00;11.30;;;11.40;99.90;;;;;;5042540;28;21180;-68
2023/06/02 03:31:47;;;;;;;11.90;11.40;;;11.30;99.90;;;;;;5038066;28;20848;-68
2023/06/02 03:34:14;;;;;;;11.80;11.00;;;11.30;99.90;;;;;;5046793;28;20479;-68
2023/06/02 03:36:41;;;;;;;11.50;11.10;;;11.40;99.90;;;;;;5042720;28;20705;-68
2023/06/02 03:39:09;;;;;;;11.90;11.50;;;11.40;99.90;;;;;;5041117;28;20466;-69
2023/06/02 03:41:38;;;;;;;12.00;11.50;;;11.30;99.90;;;;;;5048499;28;20494;-68
2023/06/02 03:44:05;;;;;;;12.90;12.30;;;11.30;99.90;;;;;;5035987;28;20468;-68
2023/06/02 03:46:32;;;;;;;12.73;11.80;;;11.30;99.90;;;;;;5037260;28;20461;-68
2023/06/02 03:49:00;;;;;;;12.17;11.70;;;11.30;99.90;;;;;;5034995;28;20476;-68
2023/06/02 03:51:27;;;;;;;13.43;12.83;;;11.20;99.90;;;;;;5046654;28;20833;-68
2023/06/02 03:53:54;;;;;;;12.03;11.53;;;11.20;99.90;;;;;;5041318;28;20859;-68
2023/06/02 03:56:22;;;;;;;12.13;11.60;;;11.20;99.90;;;;;;5041099;28;20460;-68
2023/06/02 03:58:50;;;;;;;12.60;12.00;;;11.30;99.90;;;;;;5032592;28;20833;-68
2023/06/02 04:01:17;;;;;;;12.20;11.50;;;11.20;99.90;;;;;;5043919;28;20553;-68
2023/06/02 04:03:45;;;;;;;13.33;12.60;;;11.20;99.90;;;;;;5040069;28;20958;-69
2023/06/02 04:06:12;;;;;;;11.97;11.57;;;11.10;99.90;;;;;;5042998;28;20948;-68
2023/06/02 04:08:39;;;;;;;17.53;13.30;;;11.20;99.90;;;;;;5041088;28;20825;-68
2023/06/02 04:11:08;;;;;;;12.60;12.10;;;11.10;99.90;;;;;;5039038;28;20830;-68
2023/06/02 04:13:35;;;;;;;12.30;11.80;;;11.20;99.90;;;;;;5044075;28;20829;-68
2023/06/02 04:16:04;;;;;;;19.13;17.50;;;11.20;99.90;;;;;;5034163;28;20465;-68
2023/06/02 04:18:31;;;;;;;13.60;12.90;;;11.30;99.90;;;;;;5046921;28;20487;-67
2023/06/02 04:20:58;;;;;;;23.70;13.40;;;11.20;99.90;;;;;;5040600;28;21052;-68
2023/06/02 04:23:25;;;;;;;14.90;13.80;;;11.20;99.90;;;;;;5045877;28;20861;-68
2023/06/02 04:25:52;;;;;;;13.10;12.60;;;11.20;99.90;;;;;;5044297;28;20613;-68
2023/06/02 04:28:20;;;;;;;14.43;13.63;;;11.10;99.90;;;;;;5043599;28;20814;-68
2023/06/02 04:30:49;;;;;;;13.70;12.90;;;11.10;99.90;;;;;;5036951;28;21007;-68
2023/06/02 04:33:17;;;;;;;12.30;11.80;;;11.10;99.90;;;;;;5045809;28;20464;-68
2023/06/02 04:35:43;;;;;;;14.03;13.43;;;11.10;99.90;;;;;;5047720;28;21007;-68
2023/06/02 04:38:12;;;;;;;12.53;12.03;;;11.10;99.90;;;;;;5036441;28;20483;-68
2023/06/02 04:40:41;;;;;;;14.97;14.27;;;11.20;99.90;;;;;;5046520;28;20474;-68
2023/06/02 04:43:08;;;;;;;13.40;12.80;;;11.40;99.90;;;;;;5043295;28;21006;-69
2023/06/02 04:45:35;;;;;;;15.53;14.57;;;11.40;99.90;;;;;;5034985;28;20464;-68
2023/06/02 04:48:02;;;;;;;16.30;15.50;;;11.40;99.90;;;;;;5041604;28;21080;-68
2023/06/02 04:50:30;;;;;;;12.93;12.43;;;11.40;99.90;;;;;;5038449;28;20460;-68
2023/06/02 04:52:57;;;;;;;15.80;14.47;;;11.40;99.90;;;;;;5044909;28;20452;-68
2023/06/02 04:55:24;;;;;;;13.77;13.07;;;11.50;99.90;;;;;;5029887;28;20603;-68
2023/06/02 04:57:53;;;;;;;13.97;13.37;;;11.60;99.90;;;;;;5041505;28;20547;-68
2023/06/02 05:00:20;;;;;;;13.23;12.73;;;11.60;99.90;;;;;;5040713;28;20790;-69
2023/06/02 05:02:47;;;;;;;13.90;13.30;;;11.60;99.90;;;;;;5029316;28;20452;-68
2023/06/02 05:05:14;;;;;;;14.17;13.50;;;11.80;99.90;;;;;;5037337;28;20810;-68
2023/06/02 05:07:43;;;;;;;13.83;13.23;;;11.80;99.90;;;;;;5038757;28;20465;-68
2023/06/02 05:10:11;;;;;;;13.90;13.30;;;11.90;99.90;;;;;;5042434;28;20463;-68
2023/06/02 05:12:41;;;;;;;14.17;13.57;;;12.00;99.90;;;;;;5032726;28;20803;-68
2023/06/02 05:15:09;;;;;;;14.37;13.77;;;12.20;99.90;;;;;;5035780;28;20484;-69
2023/06/02 05:17:36;;;;;;;14.57;13.87;;;12.30;99.90;;;;;;5041695;28;20928;-68
2023/06/02 05:20:04;;;;;;;13.93;13.33;;;12.20;99.90;;;;;;5041190;28;20586;-68
2023/06/02 05:22:30;;;;;;;14.33;13.73;;;12.30;99.90;;;;;;5042331;28;20496;-68
2023/06/02 05:24:59;;;;;;;14.13;13.53;;;12.50;99.90;;;;;;5035107;28;20566;-68
2023/06/02 05:27:26;;;;;;;17.17;15.40;;;12.60;99.90;;;;;;5042894;28;20555;-69
2023/06/02 05:29:53;;;;;;;14.50;13.80;;;12.50;99.90;;;;;;5030757;28;20453;-68
2023/06/02 05:32:24;;;;;;;13.83;13.23;;;12.60;99.90;;;;;;5041052;28;21033;-68
2023/06/02 05:34:51;;;;;;;13.93;13.33;;;12.70;99.90;;;;;;5037694;28;20488;-68
2023/06/02 05:37:17;;;;;;;14.53;13.93;;;12.50;99.90;;;;;;5046327;28;20456;-68
2023/06/02 05:39:44;;;;;;;14.47;13.87;;;12.50;99.90;;;;;;5044109;28;20470;-69
2023/06/02 05:42:12;;;;;;;14.57;13.97;;;12.50;99.90;;;;;;5033611;28;20560;-68
2023/06/02 05:44:41;;;;;;;18.07;16.47;;;12.40;99.90;;;;;;5037751;28;20812;-68
2023/06/02 05:47:08;;;;;;;16.00;15.20;;;12.40;99.90;;;;;;5048052;28;20463;-68
2023/06/02 05:49:35;;;;;;;14.30;13.70;;;12.30;99.90;;;;;;5033531;28;20460;-68
2023/06/02 05:52:02;;;;;;;15.60;14.90;;;12.20;99.90;;;;;;5035976;28;20487;-68
2023/06/02 05:54:30;;;;;;;16.27;15.33;;;12.40;99.90;;;;;;5031299;28;21030;-68
2023/06/02 05:56:57;;;;;;;17.77;15.90;;;12.50;99.90;;;;;;5046510;28;21016;-68
2023/06/02 05:59:25;;;;;;;15.00;14.30;;;12.70;99.90;;;;;;5031430;28;20487;-68
2023/06/02 06:01:52;;;;;;;15.47;14.77;;;12.60;99.90;;;;;;5032701;28;20497;-68
2023/06/02 06:04:20;;;;;;;14.57;13.77;;;12.70;99.90;;;;;;5044451;28;20456;-68
2023/06/02 06:06:46;;;;;;;14.63;14.03;;;12.70;99.90;;;;;;5041191;28;20495;-68
2023/06/02 06:09:14;;;;;;;15.27;14.57;;;12.70;99.90;;;;;;5036958;28;20467;-68
2023/06/02 06:11:41;;;;;;;16.27;15.43;;;12.70;99.90;;;;;;5042051;28;20962;-69
2023/06/02 06:14:08;;;;;;;15.30;14.50;;;12.80;99.90;;;;;;5038510;28;20456;-68
2023/06/02 06:16:38;;;;;;;15.03;14.40;;;12.90;99.90;;;;;;5039058;28;20840;-68
2023/06/02 06:19:05;;;;;;;15.40;14.70;;;12.90;99.90;;;;;;5045952;28;20494;-68
2023/06/02 06:21:32;;;;;;;15.50;14.80;;;13.00;99.90;;;;;;5032093;28;20604;-68
2023/06/02 06:24:00;;;;;;;14.77;14.17;;;13.00;99.90;;;;;;5042525;28;20468;-68
2023/06/02 06:26:27;;;;;;;15.23;14.53;;;13.20;99.90;;;;;;5042462;28;20468;-68
2023/06/02 06:28:54;;;;;;;15.30;14.60;;;13.20;99.90;;;;;;5042259;28;20470;-68
2023/06/02 06:31:21;;;;;;;15.20;14.50;;;13.30;99.90;;;;;;5039651;28;20484;-68
2023/06/02 06:33:51;;;;;;;14.20;13.60;;;13.20;99.90;;;;;;5034334;28;20810;-68
2023/06/02 06:36:18;;;;;;;14.90;14.20;;;13.00;99.90;;;;;;5038396;28;20571;-68
2023/06/02 06:38:44;;;;;;;15.23;14.53;;;13.10;99.90;;;;;;5036926;28;20509;-69
2023/06/02 06:41:11;;;;;;;17.03;16.03;;;13.30;99.90;;;;;;5042297;28;20456;-68
2023/06/02 06:43:39;;;;;;;17.13;16.23;;;13.10;99.90;;;;;;5033737;28;20448;-68
2023/06/02 06:46:05;;;;;;;14.67;14.07;;;13.10;99.90;;;;;;5036038;28;20841;-68
2023/06/02 06:48:33;;;;;;;15.87;15.07;;;13.10;99.90;;;;;;5038812;28;20476;-68
2023/06/02 06:51:01;;;;;;;15.63;14.83;;;13.10;99.90;;;;;;5044741;28;20502;-68
2023/06/02 06:53:29;;;;;;;14.30;13.70;;;13.00;99.90;;;;;;5042397;28;20459;-68
2023/06/02 06:55:55;;;;;;;18.90;16.90;;;13.00;99.90;;;;;;5035911;28;20483;-68
2023/06/02 06:58:22;;;;;;;13.80;13.20;;;13.30;99.90;;;;;;5045207;28;20499;-69
2023/06/02 07:00:50;;;;;;;16.03;15.13;;;13.40;99.90;;;;;;5034313;28;20461;-69
2023/06/02 07:03:18;;;;;;;14.50;13.90;;;13.40;99.90;;;;;;5034432;28;20471;-69
2023/06/02 07:05:46;;;;;;;15.50;14.80;;;13.60;99.90;;;;;;5040212;28;20921;-68
2023/06/02 07:08:15;;;;;;;15.47;14.77;;;13.70;99.90;;;;;;5043425;28;20467;-68
2023/06/02 07:10:43;;;;;;;16.23;15.13;;;13.80;99.90;;;;;;5041412;28;20460;-68
2023/06/02 07:13:10;;;;;;;17.60;16.27;;;13.80;99.90;;;;;;5031931;28;20469;-68
2023/06/02 07:15:37;;;;;;;16.13;15.00;;;14.00;99.90;;;;;;5035738;28;20491;-68
2023/06/02 07:18:04;;;;;;;15.60;14.90;;;14.20;99.90;;;;;;5039838;28;20547;-68
2023/06/02 07:20:31;;;;;;;15.53;14.80;;;14.20;99.90;;;;;;5032784;28;20488;-68
2023/06/02 07:22:58;;;;;;;14.50;13.90;;;14.30;99.90;;;;;;5039892;28;20472;-68
2023/06/02 07:25:27;;;;;;;15.50;14.80;;;14.50;99.90;;;;;;5034830;28;20526;-69
2023/06/02 07:27:54;;;;;;;14.97;14.27;;;14.60;99.90;;;;;;5042426;28;20453;-69
2023/06/02 07:30:21;;;;;;;14.60;14.00;;;14.60;99.90;;;;;;5036328;28;20529;-69
2023/06/02 07:32:49;;;;;;;15.30;14.60;;;14.50;99.90;;;;;;5038307;28;20463;-68
2023/06/02 07:35:16;;;;;;;17.53;15.77;;;14.30;99.90;;;;;;5038717;28;21058;-68
2023/06/02 07:37:43;;;;;;;16.03;15.13;;;14.30;99.90;;;;;;5043196;28;20468;-68
2023/06/02 07:40:10;;;;;;;15.50;14.60;;;14.30;99.90;;;;;;5040278;28;20500;-69
2023/06/02 07:42:40;;;;;;;17.03;15.93;;;14.20;99.90;;;;;;5043687;28;20472;-68
2023/06/02 07:45:08;;;;;;;15.63;14.93;;;14.30;99.90;;;;;;5045969;28;20463;-68
2023/06/02 07:47:35;;;;;;;17.00;15.87;;;14.20;99.90;;;;;;5046852;28;20464;-68
2023/06/02 07:50:02;;;;;;;15.43;14.53;;;14.40;99.90;;;;;;5045622;28;20468;-69
2023/06/02 07:52:29;;;;;;;17.50;16.47;;;14.30;99.90;;;;;;5035435;28;20461;-69
2023/06/02 07:54:56;;;;;;;14.77;14.17;;;14.50;99.90;;;;;;5043162;28;20465;-69
2023/06/02 07:57:24;;;;;;;19.47;18.00;;;15.10;99.90;;;;;;5038074;28;21030;-69
2023/06/02 07:59:54;;;;;;;16.07;15.17;;;15.20;99.90;;;;;;5037893;28;20475;-69
2023/06/02 08:02:22;;;;;;;17.27;16.30;;;15.20;99.90;;;;;;5038012;28;20504;-69
2023/06/02 08:04:49;;;;;;;16.20;15.30;;;15.10;99.90;;;;;;5037740;28;20483;-68
2023/06/02 08:07:17;;;;;;;17.50;16.70;;;15.10;99.90;;;;;;5041810;28;20466;-68
2023/06/02 08:09:43;;;;;;;17.20;16.20;;;15.20;99.90;;;;;;5040052;28;20467;-68
2023/06/02 08:12:10;;;;;;;21.90;20.20;;;15.30;99.90;;;;;;5044028;28;20810;-68
2023/06/02 08:14:37;;;;;;;14.57;13.87;;;14.80;99.90;;;;;;5040583;28;20457;-69
2023/06/02 08:17:07;;;;;;;14.80;14.20;;;14.90;99.90;;;;;;5044741;28;20526;-69
2023/06/02 08:19:35;;;;;;;14.90;14.23;;;14.90;99.90;;;;;;5040162;28;20728;-69
2023/06/02 08:22:02;;;;;;;16.77;16.00;;;15.40;99.90;;;;;;5045614;28;20567;-68
2023/06/02 08:24:29;;;;;;;18.00;16.90;;;15.60;99.90;;;;;;5038468;28;20467;-69
2023/06/02 08:26:59;;;;;;;14.60;14.00;;;16.10;99.90;;;;;;5045299;28;20920;-68
2023/06/02 08:29:26;;;;;;;14.80;14.10;;;16.50;99.90;;;;;;5035920;28;20464;-68
2023/06/02 08:31:54;;;;;;;14.30;13.70;;;16.50;99.90;;;;;;5043148;28;20856;-69
2023/06/02 08:34:24;;;;;;;13.70;13.20;;;16.80;99.90;;;;;;5032044;28;20464;-68
2023/06/02 08:36:56;;;;;;;15.10;14.40;;;16.90;99.90;;;;;;5038949;28;21009;-69
2023/06/02 08:39:25;;;;;;;14.97;14.37;;;17.40;99.90;;;;;;5045059;28;20513;-68
2023/06/02 08:41:55;;;;;;;22.20;17.87;;;17.00;99.90;;;;;;5035949;28;20471;-69
2023/06/02 08:44:23;;;;;;;14.13;13.53;;;17.10;99.90;;;;;;5030354;28;20464;-68
2023/06/02 08:46:52;;;;;;;14.50;13.80;;;16.40;99.90;;;;;;5047402;28;20471;-68
2023/06/02 08:49:23;;;;;;;16.17;15.37;;;16.60;99.90;;;;;;5047424;28;20870;-69
2023/06/02 08:51:55;;;;;;;16.60;15.80;;;16.70;99.90;;;;;;5048141;28;20502;-68
2023/06/02 08:54:22;;;;;;;18.03;16.77;;;16.20;99.90;;;;;;5041334;28;20465;-68
2023/06/02 08:56:51;;;;;;;19.60;18.10;;;15.60;99.90;;;;;;5041866;28;20487;-68
2023/06/02 08:59:20;;;;;;;27.90;15.33;;;15.50;99.90;;;;;;5041021;28;20938;-67
2023/06/02 09:01:47;;;;;;;16.33;15.43;;;15.60;99.90;;;;;;5039533;28;20946;-69
2023/06/02 09:04:14;;;;;;;14.63;13.93;;;15.80;99.90;;;;;;5034795;28;20950;-68
2023/06/02 09:06:43;;;;;;;16.00;15.20;;;16.20;99.90;;;;;;5043287;28;20463;-68
2023/06/02 09:09:11;;;;;;;14.53;13.93;;;16.30;99.90;;;;;;5034822;28;20468;-69
2023/06/02 09:11:38;;;;;;;18.23;16.53;;;16.70;99.90;;;;;;5044022;28;20462;-68
2023/06/02 09:14:19;;;;;;;14.50;13.90;;;17.00;99.90;;;;;;5038971;28;20924;-68
2023/06/02 09:16:47;;;;;;;18.63;17.40;;;17.10;99.90;;;;;;5045890;28;20557;-68
2023/06/02 09:19:14;;;;;;;16.23;15.43;;;16.70;99.90;;;;;;5034756;28;20856;-68
2023/06/02 09:21:44;;;;;;;17.07;16.17;;;16.10;99.90;;;;;;5041607;28;20462;-67
2023/06/02 09:24:13;;;;;;;21.60;20.17;;;16.30;99.90;;;;;;5044219;28;20460;-68
2023/06/02 09:26:49;;;;;;;17.07;16.20;;;16.30;99.90;;;;;;5037730;28;20467;-68
2023/06/02 09:29:16;;;;;;;20.57;18.67;;;16.40;99.90;;;;;;5036844;28;20831;-68
2023/06/02 09:31:47;;;;;;;21.63;19.93;;;17.30;99.90;;;;;;5034049;28;20491;-69
2023/06/02 09:34:14;;;;;;;14.73;14.10;;;17.60;99.90;;;;;;5038693;28;20983;-68
2023/06/02 09:36:43;;;;;;;22.00;20.00;;;17.90;99.90;;;;;;5032338;28;20480;-68
2023/06/02 09:39:10;;;;;;;20.10;18.60;;;18.10;99.90;;;;;;5042754;28;20471;-68
2023/06/02 09:41:38;;;;;;;18.93;17.63;;;18.40;99.90;;;;;;5037781;28;20571;-68
2023/06/02 09:44:12;;;;;;;20.37;18.90;;;18.00;99.90;;;;;;5042317;28;20815;-68
2023/06/02 09:46:45;;;;;;;15.63;14.97;;;18.40;99.90;;;;;;5040450;28;20456;-68
2023/06/02 09:49:12;;;;;;;21.93;20.67;;;18.30;99.90;;;;;;5041279;28;20463;-68
2023/06/02 09:51:40;;;;;;;23.17;21.47;;;18.40;99.90;;;;;;5034739;28;20464;-68
2023/06/02 09:54:09;;;;;;;23.87;21.50;;;17.70;99.90;;;;;;5036303;28;21033;-68
2023/06/02 09:56:37;;;;;;;15.87;15.17;;;17.40;99.90;;;;;;5046822;28;20801;-68
2023/06/02 09:59:06;;;;;;;19.97;18.37;;;17.90;99.90;;;;;;5044799;28;20468;-68
2023/06/02 10:01:33;;;;;;;17.83;16.83;;;18.80;99.90;;;;;;5041263;28;20868;-68
2023/06/02 10:04:00;;;;;;;17.67;16.50;;;19.50;99.90;;;;;;5038490;28;20475;-68
2023/06/02 10:06:38;;;;;;;16.40;15.60;;;20.00;99.90;;;;;;5040804;28;20465;-68
2023/06/02 10:09:32;;;;;;;15.60;14.90;;;19.20;99.90;;;;;;5038255;28;20965;-69
2023/06/02 10:12:23;;;;;;;16.47;15.60;;;20.00;99.90;;;;;;5038409;28;20472;-68
2023/06/02 10:15:22;;;;;;;16.93;16.03;;;20.90;98.40;;;;;;5040871;28;20464;-68
2023/06/02 10:17:56;;;;;;;17.60;16.63;;;21.50;97.40;;;;;;5036366;28;20502;-68
2023/06/02 10:20:28;;;;;;;15.87;15.17;;;21.20;95.80;;;;;;5039276;28;20487;-68
2023/06/02 10:23:10;;;;;;;16.77;15.97;;;21.80;94.60;;;;;;5043756;28;20472;-68
2023/06/02 10:26:00;;;;;;;16.30;15.60;;;21.20;93.40;;;;;;5043313;28;20467;-69
2023/06/02 10:28:29;;;;;;;15.77;15.07;;;20.70;94.50;;;;;;5034597;28;20467;-68
2023/06/02 10:31:07;;;;;;;18.00;16.80;;;21.80;93.80;;;;;;5038455;28;20567;-68
2023/06/02 10:33:42;;;;;;;17.73;16.83;;;21.90;93.40;;;;;;5041295;28;20554;-68
2023/06/02 10:36:09;;;;;;;15.50;14.57;;;22.20;92.80;;;;;;5039233;28;20518;-68
2023/06/02 10:38:38;;;;;;;17.70;16.90;;;22.10;91.40;;;;;;5035873;28;20500;-69
2023/06/02 10:41:07;;;;;;;16.30;15.57;;;22.70;91.10;;;;;;5042461;28;20827;-69
2023/06/02 10:43:34;;;;;;;17.33;16.47;;;22.70;89.10;;;;;;5033926;28;20506;-68
2023/06/02 10:46:18;;;;;;;18.50;17.50;;;21.90;90.40;;;;;;5038187;28;20463;-69
2023/06/02 10:48:46;;;;;;;17.67;16.67;;;21.10;90.40;;;;;;5041262;28;20466;-69
2023/06/02 10:51:13;;;;;;;17.80;17.00;;;20.50;91.10;;;;;;5035937;28;20465;-69
2023/06/02 10:54:14;;;;;;;14.70;14.10;;;21.50;90.80;;;;;;5037573;28;20992;-68
2023/06/02 10:56:44;;;;;;;15.63;14.93;;;22.50;91.80;;;;;;4975957;28;20498;-69
2023/06/02 10:59:30;;;;;;;16.00;15.30;;;23.50;89.50;;;;;;5029017;28;20809;-69
2023/06/02 11:01:58;;;;;;;16.70;15.90;;;23.50;86.60;;;;;;5046443;28;20447;-69
2023/06/02 11:04:30;;;;;;;16.57;15.77;;;22.90;85.90;;;;;;5044240;28;20663;-69
2023/06/02 11:07:21;;;;;;;17.90;16.90;;;23.20;86.60;;;;;;5038204;28;20495;-68
2023/06/02 11:09:50;;;;;;;17.60;16.60;;;23.70;84.10;;;;;;5031898;28;20467;-69
2023/06/02 11:12:20;;;;;;;17.90;16.80;;;24.70;83.40;;;;;;5039758;28;22042;-69
2023/06/02 11:15:13;;;;;;;16.57;15.87;;;25.00;79.10;;;;;;5042030;28;20842;-69
2023/06/02 11:17:40;;;;;;;15.40;14.70;;;23.80;78.70;;;;;;5043178;28;20491;-69
2023/06/02 11:20:10;;;;;;;16.27;15.47;;;24.20;79.50;;;;;;5038630;28;20913;-69
2023/06/02 11:22:38;;;;;;;16.43;15.43;;;24.60;76.90;;;;;;5045293;28;20558;-68
2023/06/02 11:25:06;;;;;;;17.63;16.80;;;25.40;75.90;;;;;;5044349;28;20558;-69
2023/06/02 11:27:38;;;;;;;16.77;15.97;;;25.80;73.80;;;;;;5041960;28;20969;-68
2023/06/02 11:30:11;;;;;;;17.07;16.27;;;25.40;72.80;;;;;;5041087;28;20821;-69
2023/06/02 11:32:38;;;;;;;14.93;14.33;;;25.50;71.90;;;;;;5045827;28;20486;-67
2023/06/02 11:35:08;;;;;;;15.20;14.50;;;25.80;70.50;;;;;;5042322;28;20962;-68
2023/06/02 11:37:36;;;;;;;15.10;14.43;;;25.50;71.40;;;;;;5042108;28;20495;-67
2023/06/02 11:40:05;;;;;;;15.63;14.60;;;25.20;69.00;;;;;;5042780;28;20456;-67
2023/06/02 11:42:42;;;;;;;18.07;16.73;;;24.80;70.90;;;;;;5040840;28;20459;-67
2023/06/02 11:45:22;;;;;;;17.93;16.13;;;24.60;69.50;;;;;;5042704;28;20463;-68
2023/06/02 11:47:57;;;;;;;17.13;16.13;;;25.10;71.10;;;;;;5042803;28;20456;-67
2023/06/02 11:50:24;;;;;;;17.50;16.40;;;24.80;69.90;;;;;;5035495;28;20610;-67
2023/06/02 11:52:51;;;;;;;18.90;17.40;;;25.00;71.00;;;;;;5036550;28;20907;-67
2023/06/02 11:55:17;;;;;;;18.03;16.70;;;25.60;69.30;;;;;;5042520;28;20537;-68
2023/06/02 11:57:46;;;;;;;15.80;15.00;;;25.80;67.30;;;;;;5047385;28;20495;-67
2023/06/02 12:00:15;;;;;;;19.73;16.63;;;26.00;67.00;;;;;;5040221;28;20537;-67
2023/06/02 12:02:48;;;;;;;16.77;15.77;;;25.70;66.20;;;;;;5043633;28;20466;-67
2023/06/02 12:05:29;;;;;;;15.60;14.53;;;25.40;65.10;;;;;;5038230;28;20483;-67
2023/06/02 12:07:57;;;;;;;17.30;16.40;;;25.10;69.90;;;;;;5037772;28;20456;-67
2023/06/02 12:10:32;;;;;;;14.70;14.10;;;24.80;68.40;;;;;;5040777;28;20469;-67
2023/06/02 12:13:00;;;;;;;14.57;13.97;;;25.30;70.10;;;;;;5039412;28;20459;-68
2023/06/02 12:15:33;;;;;;;15.50;14.77;;;26.70;68.50;;;;;;5038995;28;20564;-67
2023/06/02 12:18:00;;;;;;;18.10;16.63;;;27.20;65.90;;;;;;5046187;28;20503;-67
2023/06/02 12:20:35;;;;;;;17.17;15.73;;;27.00;66.50;;;;;;5038528;28;20492;-67
2023/06/02 12:23:02;;;;;;;15.40;14.60;;;26.80;64.40;;;;;;5042204;28;20471;-67
2023/06/02 12:25:29;;;;;;;15.00;14.30;;;26.10;63.80;;;;;;5041008;28;20491;-67
2023/06/02 12:28:07;;;;;;;16.60;15.53;;;25.20;66.10;;;;;;5038546;28;20459;-68
2023/06/02 12:30:34;;;;;;;18.63;17.67;;;24.40;70.30;;;;;;5045347;28;20463;-67
2023/06/02 12:33:08;;;;;;;14.70;14.10;;;24.90;69.90;;;;;;5027619;28;20481;-68
2023/06/02 12:35:35;;;;;;;14.40;13.60;;;25.20;71.40;;;;;;5037217;28;20471;-67
2023/06/02 12:38:04;;;;;;;15.00;14.40;;;25.60;69.80;;;;;;5042050;28;20842;-67